sensor_id;sensor_type;location;lat;lon;timestamp;temperature;humidity
21090;DHT22;10703;51.020;6.128;2023-04-06T00:00:33;2.20;99.90
21090;DHT22;10703;51.020;6.128;2023-04-06T00:03:00;2.20;99.90
21090;DHT22;10703;51.020;6.128;2023-04-06T00:05:27;2.10;99.90
21090;DHT22;10703;51.020;6.128;2023-04-06T00:07:54;2.10;99.90
21090;DHT22;10703;51.020;6.128;2023-04-06T00:10:22;2.10;99.90
21090;DHT22;10703;51.020;6.128;2023-04-06T00:12:48;2.10;99.90
21090;DHT22;10703;51.020;6.128;2023-04-06T00:15:15;2.10;99.90
21090;DHT22;10703;51.020;6.128;2023-04-06T00:17:42;2.10;99.90
21090;DHT22;10703;51.020;6.128;2023-04-06T00:20:09;2.20;99.90
21090;DHT22;10703;51.020;6.128;2023-04-06T00:22:38;2.20;99.90
21090;DHT22;10703;51.020;6.128;2023-04-06T00:25:05;2.30;99.90
21090;DHT22;10703;51.020;6.128;2023-04-06T00:27:32;2.30;99.90
21090;DHT22;10703;51.020;6.128;2023-04-06T00:29:59;2.40;99.90
21090;DHT22;10703;51.020;6.128;2023-04-06T00:32:25;2.40;99.90
21090;DHT22;10703;51.020;6.128;2023-04-06T00:34:52;2.30;99.90
21090;DHT22;10703;51.020;6.128;2023-04-06T00:37:18;2.20;99.90
21090;DHT22;10703;51.020;6.128;2023-04-06T00:39:45;2.10;99.90
21090;DHT22;10703;51.020;6.128;2023-04-06T00:42:13;1.90;99.90
21090;DHT22;10703;51.020;6.128;2023-04-06T00:44:43;1.80;99.90
21090;DHT22;10703;51.020;6.128;2023-04-06T00:47:09;1.70;99.90
21090;DHT22;10703;51.020;6.128;2023-04-06T00:49:36;1.50;99.90
21090;DHT22;10703;51.020;6.128;2023-04-06T00:52:03;1.40;99.90
21090;DHT22;10703;51.020;6.128;2023-04-06T00:54:30;1.30;99.90
21090;DHT22;10703;51.020;6.128;2023-04-06T00:56:57;1.30;99.90
21090;DHT22;10703;51.020;6.128;2023-04-06T00:59:24;1.40;99.90
21090;DHT22;10703;51.020;6.128;2023-04-06T01:01:50;1.30;99.90
21090;DHT22;10703;51.020;6.128;2023-04-06T01:04:17;1.40;99.90
21090;DHT22;10703;51.020;6.128;2023-04-06T01:06:44;1.50;99.90
21090;DHT22;10703;51.020;6.128;2023-04-06T01:09:11;1.50;99.90
21090;DHT22;10703;51.020;6.128;2023-04-06T01:11:38;1.40;99.90
21090;DHT22;10703;51.020;6.128;2023-04-06T01:14:04;1.40;99.90
21090;DHT22;10703;51.020;6.128;2023-04-06T01:16:32;1.40;99.90
21090;DHT22;10703;51.020;6.128;2023-04-06T01:18:58;1.40;99.90
21090;DHT22;10703;51.020;6.128;2023-04-06T01:21:25;1.40;99.90
21090;DHT22;10703;51.020;6.128;2023-04-06T01:23:52;1.50;99.90
21090;DHT22;10703;51.020;6.128;2023-04-06T01:26:18;1.50;99.90
21090;DHT22;10703;51.020;6.128;2023-04-06T01:28:45;1.60;99.90
21090;DHT22;10703;51.020;6.128;2023-04-06T01:31:12;1.60;99.90
21090;DHT22;10703;51.020;6.128;2023-04-06T01:33:38;1.60;99.90
21090;DHT22;10703;51.020;6.128;2023-04-06T01:36:05;1.60;99.90
21090;DHT22;10703;51.020;6.128;2023-04-06T01:38:32;1.60;99.90
21090;DHT22;10703;51.020;6.128;2023-04-06T01:40:58;1.50;99.90
21090;DHT22;10703;51.020;6.128;2023-04-06T01:43:25;1.40;99.90
21090;DHT22;10703;51.020;6.128;2023-04-06T01:45:51;1.30;99.90
21090;DHT22;10703;51.020;6.128;2023-04-06T01:48:18;1.20;99.90
21090;DHT22;10703;51.020;6.128;2023-04-06T01:50:45;1.20;99.90
21090;DHT22;10703;51.020;6.128;2023-04-06T01:53:12;1.30;99.90
21090;DHT22;10703;51.020;6.128;2023-04-06T01:55:38;1.30;99.90
21090;DHT22;10703;51.020;6.128;2023-04-06T01:58:05;1.30;99.90
21090;DHT22;10703;51.020;6.128;2023-04-06T02:00:32;1.20;99.90
21090;DHT22;10703;51.020;6.128;2023-04-06T02:02:58;1.30;99.90
21090;DHT22;10703;51.020;6.128;2023-04-06T02:05:26;1.30;99.90
21090;DHT22;10703;51.020;6.128;2023-04-06T02:07:52;1.40;99.90
21090;DHT22;10703;51.020;6.128;2023-04-06T02:10:19;1.40;99.90
21090;DHT22;10703;51.020;6.128;2023-04-06T02:12:46;1.30;99.90
21090;DHT22;10703;51.020;6.128;2023-04-06T02:15:12;1.20;99.90
21090;DHT22;10703;51.020;6.128;2023-04-06T02:17:40;1.10;99.90
21090;DHT22;10703;51.020;6.128;2023-04-06T02:20:07;1.20;99.90
21090;DHT22;10703;51.020;6.128;2023-04-06T02:22:37;1.30;99.90
21090;DHT22;10703;51.020;6.128;2023-04-06T02:25:04;1.40;99.90
21090;DHT22;10703;51.020;6.128;2023-04-06T02:27:31;1.30;99.90
21090;DHT22;10703;51.020;6.128;2023-04-06T02:29:57;1.30;99.90
21090;DHT22;10703;51.020;6.128;2023-04-06T02:32:24;1.20;99.90
21090;DHT22;10703;51.020;6.128;2023-04-06T02:34:51;1.10;99.90
21090;DHT22;10703;51.020;6.128;2023-04-06T02:37:18;1.00;99.90
21090;DHT22;10703;51.020;6.128;2023-04-06T02:39:45;1.00;99.90
21090;DHT22;10703;51.020;6.128;2023-04-06T02:42:11;1.00;99.90
21090;DHT22;10703;51.020;6.128;2023-04-06T02:44:38;0.90;99.90
21090;DHT22;10703;51.020;6.128;2023-04-06T02:47:05;0.80;99.90
21090;DHT22;10703;51.020;6.128;2023-04-06T02:49:31;1.00;99.90
21090;DHT22;10703;51.020;6.128;2023-04-06T02:51:58;1.10;99.90
21090;DHT22;10703;51.020;6.128;2023-04-06T02:54:24;1.00;99.90
21090;DHT22;10703;51.020;6.128;2023-04-06T02:56:51;0.90;99.90
21090;DHT22;10703;51.020;6.128;2023-04-06T02:59:18;0.90;99.90
21090;DHT22;10703;51.020;6.128;2023-04-06T03:01:44;0.80;99.90
21090;DHT22;10703;51.020;6.128;2023-04-06T03:04:11;0.90;99.90
21090;DHT22;10703;51.020;6.128;2023-04-06T03:06:38;0.90;99.90
21090;DHT22;10703;51.020;6.128;2023-04-06T03:09:06;0.90;99.90
21090;DHT22;10703;51.020;6.128;2023-04-06T03:11:33;0.80;99.90
21090;DHT22;10703;51.020;6.128;2023-04-06T03:13:59;0.70;99.90
21090;DHT22;10703;51.020;6.128;2023-04-06T03:16:26;0.70;99.90
21090;DHT22;10703;51.020;6.128;2023-04-06T03:18:53;0.70;99.90
21090;DHT22;10703;51.020;6.128;2023-04-06T03:21:19;0.60;99.90
21090;DHT22;10703;51.020;6.128;2023-04-06T03:23:46;0.60;99.90
21090;DHT22;10703;51.020;6.128;2023-04-06T03:26:13;0.70;99.90
21090;DHT22;10703;51.020;6.128;2023-04-06T03:28:39;0.60;99.90
21090;DHT22;10703;51.020;6.128;2023-04-06T03:31:06;0.70;99.90
21090;DHT22;10703;51.020;6.128;2023-04-06T03:33:33;0.70;99.90
21090;DHT22;10703;51.020;6.128;2023-04-06T03:36:00;0.80;99.90
21090;DHT22;10703;51.020;6.128;2023-04-06T03:38:26;0.80;99.90
21090;DHT22;10703;51.020;6.128;2023-04-06T03:40:53;0.90;99.90
21090;DHT22;10703;51.020;6.128;2023-04-06T03:43:19;0.80;99.90
21090;DHT22;10703;51.020;6.128;2023-04-06T03:45:46;0.80;99.90
21090;DHT22;10703;51.020;6.128;2023-04-06T03:48:13;0.70;99.90
21090;DHT22;10703;51.020;6.128;2023-04-06T03:50:39;0.70;99.90
21090;DHT22;10703;51.020;6.128;2023-04-06T03:53:06;0.70;99.90
21090;DHT22;10703;51.020;6.128;2023-04-06T03:55:32;0.80;99.90
21090;DHT22;10703;51.020;6.128;2023-04-06T03:57:59;0.70;99.90
21090;DHT22;10703;51.020;6.128;2023-04-06T04:00:26;0.80;99.90
21090;DHT22;10703;51.020;6.128;2023-04-06T04:02:52;0.70;99.90
21090;DHT22;10703;51.020;6.128;2023-04-06T04:05:19;0.70;99.90
21090;DHT22;10703;51.020;6.128;2023-04-06T04:07:51;0.80;99.90
21090;DHT22;10703;51.020;6.128;2023-04-06T04:10:18;0.70;99.90
21090;DHT22;10703;51.020;6.128;2023-04-06T04:12:45;0.80;99.90
21090;DHT22;10703;51.020;6.128;2023-04-06T04:15:11;0.90;99.90
21090;DHT22;10703;51.020;6.128;2023-04-06T04:17:38;0.90;99.90
21090;DHT22;10703;51.020;6.128;2023-04-06T04:20:05;1.00;99.90
21090;DHT22;10703;51.020;6.128;2023-04-06T04:22:32;1.00;99.90
21090;DHT22;10703;51.020;6.128;2023-04-06T04:24:59;1.10;99.90
21090;DHT22;10703;51.020;6.128;2023-04-06T04:27:25;1.10;99.90
21090;DHT22;10703;51.020;6.128;2023-04-06T04:29:52;1.10;99.90
21090;DHT22;10703;51.020;6.128;2023-04-06T04:32:19;1.10;99.90
21090;DHT22;10703;51.020;6.128;2023-04-06T04:34:47;1.10;99.90
21090;DHT22;10703;51.020;6.128;2023-04-06T04:37:13;1.10;99.90
21090;DHT22;10703;51.020;6.128;2023-04-06T04:39:40;1.30;99.90
21090;DHT22;10703;51.020;6.128;2023-04-06T04:42:06;1.30;99.90
21090;DHT22;10703;51.020;6.128;2023-04-06T04:44:33;1.40;99.90
21090;DHT22;10703;51.020;6.128;2023-04-06T04:47:00;1.40;99.90
21090;DHT22;10703;51.020;6.128;2023-04-06T04:49:27;1.40;99.90
21090;DHT22;10703;51.020;6.128;2023-04-06T04:51:53;1.50;99.90
21090;DHT22;10703;51.020;6.128;2023-04-06T04:54:20;1.50;99.90
21090;DHT22;10703;51.020;6.128;2023-04-06T04:56:47;1.40;99.90
21090;DHT22;10703;51.020;6.128;2023-04-06T04:59:13;1.50;99.90
21090;DHT22;10703;51.020;6.128;2023-04-06T05:01:41;1.50;99.90
21090;DHT22;10703;51.020;6.128;2023-04-06T05:04:20;1.50;99.90
21090;DHT22;10703;51.020;6.128;2023-04-06T05:06:47;1.40;99.90
21090;DHT22;10703;51.020;6.128;2023-04-06T05:09:13;1.50;99.90
21090;DHT22;10703;51.020;6.128;2023-04-06T05:11:40;1.50;99.90
21090;DHT22;10703;51.020;6.128;2023-04-06T05:14:07;1.60;99.90
21090;DHT22;10703;51.020;6.128;2023-04-06T05:16:34;1.60;99.90
21090;DHT22;10703;51.020;6.128;2023-04-06T05:19:01;1.70;99.90
21090;DHT22;10703;51.020;6.128;2023-04-06T05:21:27;1.70;99.90
21090;DHT22;10703;51.020;6.128;2023-04-06T05:23:54;1.70;99.90
21090;DHT22;10703;51.020;6.128;2023-04-06T05:26:21;1.70;99.90
21090;DHT22;10703;51.020;6.128;2023-04-06T05:28:47;1.70;99.90
21090;DHT22;10703;51.020;6.128;2023-04-06T05:31:14;1.80;99.90
21090;DHT22;10703;51.020;6.128;2023-04-06T05:33:42;1.90;99.90
21090;DHT22;10703;51.020;6.128;2023-04-06T05:36:09;2.00;99.90
21090;DHT22;10703;51.020;6.128;2023-04-06T05:38:39;2.20;99.90
21090;DHT22;10703;51.020;6.128;2023-04-06T05:41:05;2.30;99.90
21090;DHT22;10703;51.020;6.128;2023-04-06T05:43:32;2.40;99.90
21090;DHT22;10703;51.020;6.128;2023-04-06T05:45:59;2.40;99.90
21090;DHT22;10703;51.020;6.128;2023-04-06T05:48:25;2.40;99.90
21090;DHT22;10703;51.020;6.128;2023-04-06T05:50:52;2.50;99.90
21090;DHT22;10703;51.020;6.128;2023-04-06T05:53:19;2.60;99.90
21090;DHT22;10703;51.020;6.128;2023-04-06T05:55:47;2.70;99.90
21090;DHT22;10703;51.020;6.128;2023-04-06T05:58:14;2.80;99.90
21090;DHT22;10703;51.020;6.128;2023-04-06T06:00:40;2.90;99.90
21090;DHT22;10703;51.020;6.128;2023-04-06T06:03:09;3.00;99.90
21090;DHT22;10703;51.020;6.128;2023-04-06T06:05:36;3.20;99.90
21090;DHT22;10703;51.020;6.128;2023-04-06T06:08:03;3.30;99.90
21090;DHT22;10703;51.020;6.128;2023-04-06T06:10:29;3.40;99.90
21090;DHT22;10703;51.020;6.128;2023-04-06T06:12:56;3.60;99.90
21090;DHT22;10703;51.020;6.128;2023-04-06T06:15:23;3.60;99.90
21090;DHT22;10703;51.020;6.128;2023-04-06T06:17:50;3.70;99.90
21090;DHT22;10703;51.020;6.128;2023-04-06T06:20:16;3.90;99.90
21090;DHT22;10703;51.020;6.128;2023-04-06T06:22:43;3.90;99.90
21090;DHT22;10703;51.020;6.128;2023-04-06T06:25:10;4.00;99.90
21090;DHT22;10703;51.020;6.128;2023-04-06T06:27:36;4.20;99.90
21090;DHT22;10703;51.020;6.128;2023-04-06T06:30:03;4.30;99.90
21090;DHT22;10703;51.020;6.128;2023-04-06T06:32:30;4.60;99.90
21090;DHT22;10703;51.020;6.128;2023-04-06T06:34:57;4.70;99.90
21090;DHT22;10703;51.020;6.128;2023-04-06T06:37:23;4.70;99.90
21090;DHT22;10703;51.020;6.128;2023-04-06T06:39:50;4.80;99.90
21090;DHT22;10703;51.020;6.128;2023-04-06T06:42:16;4.80;99.90
21090;DHT22;10703;51.020;6.128;2023-04-06T06:44:43;4.90;99.90
21090;DHT22;10703;51.020;6.128;2023-04-06T06:47:10;5.10;99.90
21090;DHT22;10703;51.020;6.128;2023-04-06T06:49:36;5.30;99.90
21090;DHT22;10703;51.020;6.128;2023-04-06T06:52:03;5.40;99.90
21090;DHT22;10703;51.020;6.128;2023-04-06T06:54:30;5.80;99.90
21090;DHT22;10703;51.020;6.128;2023-04-06T06:56:56;5.90;99.90
21090;DHT22;10703;51.020;6.128;2023-04-06T06:59:23;6.20;99.90
21090;DHT22;10703;51.020;6.128;2023-04-06T07:01:50;6.10;99.90
21090;DHT22;10703;51.020;6.128;2023-04-06T07:04:17;6.20;99.90
21090;DHT22;10703;51.020;6.128;2023-04-06T07:06:43;6.10;99.90
21090;DHT22;10703;51.020;6.128;2023-04-06T07:09:10;6.20;99.90
21090;DHT22;10703;51.020;6.128;2023-04-06T07:11:36;6.40;99.90
21090;DHT22;10703;51.020;6.128;2023-04-06T07:14:03;6.80;99.90
21090;DHT22;10703;51.020;6.128;2023-04-06T07:16:29;7.10;99.90
21090;DHT22;10703;51.020;6.128;2023-04-06T07:18:56;7.10;99.90
21090;DHT22;10703;51.020;6.128;2023-04-06T07:21:23;7.40;99.90
21090;DHT22;10703;51.020;6.128;2023-04-06T07:23:50;7.40;99.90
21090;DHT22;10703;51.020;6.128;2023-04-06T07:26:17;7.60;99.90
21090;DHT22;10703;51.020;6.128;2023-04-06T07:28:43;7.70;99.90
21090;DHT22;10703;51.020;6.128;2023-04-06T07:31:10;7.80;99.90
21090;DHT22;10703;51.020;6.128;2023-04-06T07:33:36;7.80;99.90
21090;DHT22;10703;51.020;6.128;2023-04-06T07:36:03;8.20;99.90
21090;DHT22;10703;51.020;6.128;2023-04-06T07:38:31;8.20;99.90
21090;DHT22;10703;51.020;6.128;2023-04-06T07:40:57;8.40;99.90
21090;DHT22;10703;51.020;6.128;2023-04-06T07:43:24;8.50;99.90
21090;DHT22;10703;51.020;6.128;2023-04-06T07:45:50;8.10;99.90
21090;DHT22;10703;51.020;6.128;2023-04-06T07:48:17;8.30;99.90
21090;DHT22;10703;51.020;6.128;2023-04-06T07:50:44;8.40;99.90
21090;DHT22;10703;51.020;6.128;2023-04-06T07:53:10;8.70;99.90
21090;DHT22;10703;51.020;6.128;2023-04-06T07:55:37;8.80;99.90
21090;DHT22;10703;51.020;6.128;2023-04-06T07:58:04;8.70;99.90
21090;DHT22;10703;51.020;6.128;2023-04-06T08:00:30;8.90;99.90
21090;DHT22;10703;51.020;6.128;2023-04-06T08:02:57;9.00;99.90
21090;DHT22;10703;51.020;6.128;2023-04-06T08:05:24;9.10;99.90
21090;DHT22;10703;51.020;6.128;2023-04-06T08:07:51;9.10;99.90
21090;DHT22;10703;51.020;6.128;2023-04-06T08:10:17;8.90;99.90
21090;DHT22;10703;51.020;6.128;2023-04-06T08:12:44;9.30;99.90
21090;DHT22;10703;51.020;6.128;2023-04-06T08:15:11;9.30;99.90
21090;DHT22;10703;51.020;6.128;2023-04-06T08:17:38;9.60;99.90
21090;DHT22;10703;51.020;6.128;2023-04-06T08:20:04;9.80;99.90
21090;DHT22;10703;51.020;6.128;2023-04-06T08:22:31;9.90;99.90
21090;DHT22;10703;51.020;6.128;2023-04-06T08:24:58;9.80;99.90
21090;DHT22;10703;51.020;6.128;2023-04-06T08:27:25;9.90;99.90
21090;DHT22;10703;51.020;6.128;2023-04-06T08:29:51;9.90;99.90
21090;DHT22;10703;51.020;6.128;2023-04-06T08:32:18;10.10;99.90
21090;DHT22;10703;51.020;6.128;2023-04-06T08:34:45;10.30;99.90
21090;DHT22;10703;51.020;6.128;2023-04-06T08:37:11;10.30;99.90
21090;DHT22;10703;51.020;6.128;2023-04-06T08:39:38;10.90;99.90
21090;DHT22;10703;51.020;6.128;2023-04-06T08:42:12;11.00;99.90
21090;DHT22;10703;51.020;6.128;2023-04-06T08:44:42;11.00;99.90
21090;DHT22;10703;51.020;6.128;2023-04-06T08:47:10;11.20;99.90
21090;DHT22;10703;51.020;6.128;2023-04-06T08:49:37;11.50;99.90
21090;DHT22;10703;51.020;6.128;2023-04-06T08:52:08;11.60;99.90
21090;DHT22;10703;51.020;6.128;2023-04-06T08:54:37;12.00;99.90
21090;DHT22;10703;51.020;6.128;2023-04-06T08:57:04;11.90;99.90
21090;DHT22;10703;51.020;6.128;2023-04-06T08:59:33;11.90;99.90
21090;DHT22;10703;51.020;6.128;2023-04-06T09:02:03;12.00;99.90
21090;DHT22;10703;51.020;6.128;2023-04-06T09:04:35;11.50;99.90
21090;DHT22;10703;51.020;6.128;2023-04-06T09:07:02;11.70;99.90
21090;DHT22;10703;51.020;6.128;2023-04-06T09:09:29;12.60;99.90
21090;DHT22;10703;51.020;6.128;2023-04-06T09:11:56;12.80;99.90
21090;DHT22;10703;51.020;6.128;2023-04-06T09:14:37;12.70;99.90
21090;DHT22;10703;51.020;6.128;2023-04-06T09:17:05;12.70;99.80
21090;DHT22;10703;51.020;6.128;2023-04-06T09:19:32;12.70;99.90
21090;DHT22;10703;51.020;6.128;2023-04-06T09:22:06;12.60;98.80
21090;DHT22;10703;51.020;6.128;2023-04-06T09:25:17;12.70;98.80
21090;DHT22;10703;51.020;6.128;2023-04-06T09:27:34;12.50;99.20
21090;DHT22;10703;51.020;6.128;2023-04-06T09:30:05;12.50;99.00
21090;DHT22;10703;51.020;6.128;2023-04-06T09:32:32;12.60;99.10
21090;DHT22;10703;51.020;6.128;2023-04-06T09:35:10;12.40;98.70
21090;DHT22;10703;51.020;6.128;2023-04-06T09:37:36;12.10;98.80
21090;DHT22;10703;51.020;6.128;2023-04-06T09:40:06;12.00;99.10
21090;DHT22;10703;51.020;6.128;2023-04-06T09:42:34;11.80;99.90
21090;DHT22;10703;51.020;6.128;2023-04-06T09:45:02;11.90;99.90
21090;DHT22;10703;51.020;6.128;2023-04-06T09:47:30;11.70;99.90
21090;DHT22;10703;51.020;6.128;2023-04-06T09:49:59;11.80;99.90
21090;DHT22;10703;51.020;6.128;2023-04-06T09:52:31;11.50;99.90
21090;DHT22;10703;51.020;6.128;2023-04-06T09:55:02;11.60;99.90
21090;DHT22;10703;51.020;6.128;2023-04-06T09:57:50;11.70;99.90
21090;DHT22;10703;51.020;6.128;2023-04-06T10:00:21;11.80;99.90
21090;DHT22;10703;51.020;6.128;2023-04-06T10:05:46;11.90;99.90
21090;DHT22;10703;51.020;6.128;2023-04-06T10:08:13;11.80;99.90
21090;DHT22;10703;51.020;6.128;2023-04-06T10:10:41;11.80;99.90
21090;DHT22;10703;51.020;6.128;2023-04-06T10:13:11;12.20;98.70
21090;DHT22;10703;51.020;6.128;2023-04-06T10:15:41;12.10;98.70
21090;DHT22;10703;51.020;6.128;2023-04-06T10:18:08;12.40;98.50
21090;DHT22;10703;51.020;6.128;2023-04-06T10:20:43;12.70;96.80
21090;DHT22;10703;51.020;6.128;2023-04-06T10:23:23;13.00;97.10
21090;DHT22;10703;51.020;6.128;2023-04-06T10:25:58;13.50;96.30
21090;DHT22;10703;51.020;6.128;2023-04-06T10:28:25;14.00;98.00
21090;DHT22;10703;51.020;6.128;2023-04-06T10:30:59;14.00;96.60
21090;DHT22;10703;51.020;6.128;2023-04-06T10:33:27;14.10;95.80
21090;DHT22;10703;51.020;6.128;2023-04-06T10:35:54;13.70;97.20
21090;DHT22;10703;51.020;6.128;2023-04-06T10:38:34;13.60;97.40
21090;DHT22;10703;51.020;6.128;2023-04-06T10:41:07;13.40;98.00
21090;DHT22;10703;51.020;6.128;2023-04-06T10:43:35;12.50;98.50
21090;DHT22;10703;51.020;6.128;2023-04-06T10:46:06;12.10;97.80
21090;DHT22;10703;51.020;6.128;2023-04-06T10:48:41;12.00;99.90
21090;DHT22;10703;51.020;6.128;2023-04-06T10:51:15;11.80;99.90
21090;DHT22;10703;51.020;6.128;2023-04-06T10:53:44;12.00;99.90
21090;DHT22;10703;51.020;6.128;2023-04-06T10:56:13;11.80;99.90
21090;DHT22;10703;51.020;6.128;2023-04-06T10:58:51;11.70;99.90
21090;DHT22;10703;51.020;6.128;2023-04-06T11:01:19;11.60;99.90
21090;DHT22;10703;51.020;6.128;2023-04-06T11:03:48;11.80;99.90
21090;DHT22;10703;51.020;6.128;2023-04-06T11:06:25;12.00;99.90
21090;DHT22;10703;51.020;6.128;2023-04-06T11:08:53;12.00;99.90
21090;DHT22;10703;51.020;6.128;2023-04-06T11:11:22;11.70;99.90
21090;DHT22;10703;51.020;6.128;2023-04-06T11:13:59;12.00;99.90
21090;DHT22;10703;51.020;6.128;2023-04-06T11:16:26;12.10;99.90
21090;DHT22;10703;51.020;6.128;2023-04-06T11:18:55;11.90;99.90
21090;DHT22;10703;51.020;6.128;2023-04-06T11:21:38;11.90;99.90
21090;DHT22;10703;51.020;6.128;2023-04-06T11:24:24;11.90;99.90
21090;DHT22;10703;51.020;6.128;2023-04-06T11:26:52;11.40;99.90
21090;DHT22;10703;51.020;6.128;2023-04-06T11:29:20;11.60;99.90
21090;DHT22;10703;51.020;6.128;2023-04-06T11:31:48;11.10;99.90
21090;DHT22;10703;51.020;6.128;2023-04-06T11:34:20;11.00;99.90
21090;DHT22;10703;51.020;6.128;2023-04-06T11:36:48;11.10;99.90
21090;DHT22;10703;51.020;6.128;2023-04-06T11:39:20;11.00;99.90
21090;DHT22;10703;51.020;6.128;2023-04-06T11:41:48;11.40;99.90
21090;DHT22;10703;51.020;6.128;2023-04-06T11:44:26;11.10;99.90
21090;DHT22;10703;51.020;6.128;2023-04-06T11:46:53;10.50;99.90
21090;DHT22;10703;51.020;6.128;2023-04-06T11:49:20;10.20;99.90
21090;DHT22;10703;51.020;6.128;2023-04-06T11:51:47;10.30;99.90
21090;DHT22;10703;51.020;6.128;2023-04-06T11:54:13;10.20;99.90
21090;DHT22;10703;51.020;6.128;2023-04-06T11:56:40;10.00;99.90
21090;DHT22;10703;51.020;6.128;2023-04-06T11:59:07;9.80;99.90
21090;DHT22;10703;51.020;6.128;2023-04-06T12:01:33;9.70;99.90
21090;DHT22;10703;51.020;6.128;2023-04-06T12:04:04;9.80;99.90
21090;DHT22;10703;51.020;6.128;2023-04-06T12:06:31;9.70;99.90
21090;DHT22;10703;51.020;6.128;2023-04-06T12:08:58;9.50;99.90
21090;DHT22;10703;51.020;6.128;2023-04-06T12:11:25;9.50;99.90
21090;DHT22;10703;51.020;6.128;2023-04-06T12:13:51;9.40;99.90
21090;DHT22;10703;51.020;6.128;2023-04-06T12:16:18;9.40;99.90
21090;DHT22;10703;51.020;6.128;2023-04-06T12:18:45;9.30;99.90
21090;DHT22;10703;51.020;6.128;2023-04-06T12:21:12;9.30;99.90
21090;DHT22;10703;51.020;6.128;2023-04-06T12:23:39;9.30;99.90
21090;DHT22;10703;51.020;6.128;2023-04-06T12:26:05;9.40;99.90
21090;DHT22;10703;51.020;6.128;2023-04-06T12:28:38;9.40;99.90
21090;DHT22;10703;51.020;6.128;2023-04-06T12:31:05;9.40;99.90
21090;DHT22;10703;51.020;6.128;2023-04-06T12:33:32;9.50;99.90
21090;DHT22;10703;51.020;6.128;2023-04-06T12:35:59;9.50;99.90
21090;DHT22;10703;51.020;6.128;2023-04-06T12:38:26;9.60;99.90
21090;DHT22;10703;51.020;6.128;2023-04-06T12:40:52;9.40;99.90
21090;DHT22;10703;51.020;6.128;2023-04-06T12:43:19;9.40;99.90
21090;DHT22;10703;51.020;6.128;2023-04-06T12:45:46;9.40;99.90
21090;DHT22;10703;51.020;6.128;2023-04-06T12:48:12;9.70;99.90
21090;DHT22;10703;51.020;6.128;2023-04-06T12:50:39;9.70;99.90
21090;DHT22;10703;51.020;6.128;2023-04-06T12:53:05;9.70;99.90
21090;DHT22;10703;51.020;6.128;2023-04-06T12:55:32;9.60;99.90
21090;DHT22;10703;51.020;6.128;2023-04-06T12:58:00;9.80;99.90
21090;DHT22;10703;51.020;6.128;2023-04-06T13:00:27;9.70;99.90
21090;DHT22;10703;51.020;6.128;2023-04-06T13:02:54;9.90;99.90
21090;DHT22;10703;51.020;6.128;2023-04-06T13:05:20;9.80;99.90
21090;DHT22;10703;51.020;6.128;2023-04-06T13:07:47;9.70;99.90
21090;DHT22;10703;51.020;6.128;2023-04-06T13:10:14;9.60;99.90
21090;DHT22;10703;51.020;6.128;2023-04-06T13:12:40;9.10;99.90
21090;DHT22;10703;51.020;6.128;2023-04-06T13:15:07;9.10;99.90
21090;DHT22;10703;51.020;6.128;2023-04-06T13:17:34;9.10;99.90
21090;DHT22;10703;51.020;6.128;2023-04-06T13:20:00;8.70;99.90
21090;DHT22;10703;51.020;6.128;2023-04-06T13:22:27;8.70;99.90
21090;DHT22;10703;51.020;6.128;2023-04-06T13:24:54;8.90;99.90
21090;DHT22;10703;51.020;6.128;2023-04-06T13:27:21;8.60;99.90
21090;DHT22;10703;51.020;6.128;2023-04-06T13:29:47;8.90;99.90
21090;DHT22;10703;51.020;6.128;2023-04-06T13:32:14;8.80;99.90
21090;DHT22;10703;51.020;6.128;2023-04-06T13:34:41;8.80;99.90
21090;DHT22;10703;51.020;6.128;2023-04-06T13:37:12;8.70;99.90
21090;DHT22;10703;51.020;6.128;2023-04-06T13:39:39;8.70;99.90
21090;DHT22;10703;51.020;6.128;2023-04-06T13:42:06;8.70;99.90
21090;DHT22;10703;51.020;6.128;2023-04-06T13:44:33;8.70;99.90
21090;DHT22;10703;51.020;6.128;2023-04-06T13:46:59;8.80;99.90
21090;DHT22;10703;51.020;6.128;2023-04-06T13:49:26;8.90;99.90
21090;DHT22;10703;51.020;6.128;2023-04-06T13:51:53;8.90;99.90
21090;DHT22;10703;51.020;6.128;2023-04-06T13:54:19;8.80;99.90
21090;DHT22;10703;51.020;6.128;2023-04-06T13:56:46;8.70;99.90
21090;DHT22;10703;51.020;6.128;2023-04-06T13:59:12;8.80;99.90
21090;DHT22;10703;51.020;6.128;2023-04-06T14:01:39;8.70;99.90
21090;DHT22;10703;51.020;6.128;2023-04-06T14:04:06;8.60;99.90
21090;DHT22;10703;51.020;6.128;2023-04-06T14:06:33;8.60;99.90
21090;DHT22;10703;51.020;6.128;2023-04-06T14:08:59;8.50;99.90
21090;DHT22;10703;51.020;6.128;2023-04-06T14:11:26;8.60;99.90
21090;DHT22;10703;51.020;6.128;2023-04-06T14:13:53;8.60;99.90
21090;DHT22;10703;51.020;6.128;2023-04-06T14:16:23;8.50;99.90
21090;DHT22;10703;51.020;6.128;2023-04-06T14:18:50;8.70;99.90
21090;DHT22;10703;51.020;6.128;2023-04-06T14:21:17;8.60;99.90
21090;DHT22;10703;51.020;6.128;2023-04-06T14:23:44;8.60;99.90
21090;DHT22;10703;51.020;6.128;2023-04-06T14:26:12;8.50;99.90
21090;DHT22;10703;51.020;6.128;2023-04-06T14:28:39;8.50;99.90
21090;DHT22;10703;51.020;6.128;2023-04-06T14:31:13;8.40;99.90
21090;DHT22;10703;51.020;6.128;2023-04-06T14:33:42;8.40;99.90
21090;DHT22;10703;51.020;6.128;2023-04-06T14:36:09;8.40;99.90
21090;DHT22;10703;51.020;6.128;2023-04-06T14:38:36;8.50;99.90
21090;DHT22;10703;51.020;6.128;2023-04-06T14:41:03;8.50;99.90
21090;DHT22;10703;51.020;6.128;2023-04-06T14:43:30;8.70;99.90
21090;DHT22;10703;51.020;6.128;2023-04-06T14:46:00;8.70;99.90
21090;DHT22;10703;51.020;6.128;2023-04-06T14:48:27;8.70;99.90
21090;DHT22;10703;51.020;6.128;2023-04-06T14:50:55;8.70;99.90
21090;DHT22;10703;51.020;6.128;2023-04-06T14:53:22;8.70;99.90
21090;DHT22;10703;51.020;6.128;2023-04-06T14:55:50;8.70;99.90
21090;DHT22;10703;51.020;6.128;2023-04-06T14:58:22;8.70;99.90
21090;DHT22;10703;51.020;6.128;2023-04-06T15:00:49;8.70;99.90
21090;DHT22;10703;51.020;6.128;2023-04-06T15:03:21;8.60;99.90
21090;DHT22;10703;51.020;6.128;2023-04-06T15:05:48;8.60;99.90
21090;DHT22;10703;51.020;6.128;2023-04-06T15:08:15;8.60;99.90
21090;DHT22;10703;51.020;6.128;2023-04-06T15:10:43;8.50;99.90
21090;DHT22;10703;51.020;6.128;2023-04-06T15:13:09;8.50;99.90
21090;DHT22;10703;51.020;6.128;2023-04-06T15:15:36;8.60;99.90
21090;DHT22;10703;51.020;6.128;2023-04-06T15:18:04;8.70;99.90
21090;DHT22;10703;51.020;6.128;2023-04-06T15:20:31;8.70;99.90
21090;DHT22;10703;51.020;6.128;2023-04-06T15:22:57;8.70;99.90
21090;DHT22;10703;51.020;6.128;2023-04-06T15:25:25;8.60;99.90
21090;DHT22;10703;51.020;6.128;2023-04-06T15:27:51;8.70;99.90
21090;DHT22;10703;51.020;6.128;2023-04-06T15:30:18;8.80;99.90
21090;DHT22;10703;51.020;6.128;2023-04-06T15:33:00;8.70;99.90
21090;DHT22;10703;51.020;6.128;2023-04-06T15:35:27;8.80;99.90
21090;DHT22;10703;51.020;6.128;2023-04-06T15:37:56;8.60;99.90
21090;DHT22;10703;51.020;6.128;2023-04-06T15:40:23;8.50;99.90
21090;DHT22;10703;51.020;6.128;2023-04-06T15:42:50;8.60;99.90
21090;DHT22;10703;51.020;6.128;2023-04-06T15:45:17;8.50;99.90
21090;DHT22;10703;51.020;6.128;2023-04-06T15:47:44;8.50;99.90